Terminal Aerodrome Forecast
Issued by NWS

Home | Current Version | Previous Version | Text Only | Print | Product List | Glossary Off
Versions: 1 2 3 4 5 6 7 8 9 10 11 12 13 14 15 16 17 18 19 20

000
FTUS43 KGRB 311300 AAA
TAFCWA
TAF AMD
KCWA 311312Z 3113/0112 32004KT P6SM SCT040 SCT090
      TEMPO 3113/3114 3SM BR SCT004
     FM311500 28011G19KT P6SM BKN040
     FM312200 32008KT P6SM SCT040
     FM010300 03005KT P6SM SCT150
     FM011000 10006KT P6SM BKN100=

USA.gov is the U.S. government's official web portal to all federal, state and local government web resources and services.